Bellefontaine, OH

4:54 PM EST on February 23, 2017 (GMT -0500)
Bellefontaine

Weather History for KEDJ - June, 2014

Change the Weather History Date:

Friday, June 6, 2014

  Actual Average (KDAY) Record (KDAY)
Temperature  
Mean Temperature 62 °F -  
Max Temperature 75 °F 79 °F 97 °F (1925)
Min Temperature 48 °F 57 °F 41 °F (1998)
Degree Days  
Heating Degree Days 4    
Growing Degree Days 12 (Base 50)    
Moisture  
Dew Point 49 °F    
Average Humidity 63    
Maximum Humidity 100    
Minimum Humidity 36    
Precipitation  
Precipitation 0.00 in - - ()
Sea Level Pressure  
Sea Level Pressure 29.99 in    
Wind  
Wind Speed 2 mph (ESE)    
Max Wind Speed 9 mph    
Max Gust Speed -    
Visibility 10 miles    
Events      
Averages and records for this station are not official NWS values.
T = Trace of Precipitation, MM = Missing Value Source: NWS Daily Summary

Daily Weather History Graph

Daily Weather History Graph

Search for Another Location

Airport or City:

Trip Planner

Search our weather history database for the weather conditions in past years. The results will help you decide how hot, cold, wet, or windy it might be!

Date:

Astronomy

Jun. 06, 2014 Rise Set
Actual Time 6:05 AM EDT 9:02 PM EDT
Civil Twilight 5:32 AM EDT 9:35 PM EDT
Nautical Twilight 4:51 AM EDT 10:16 PM EDT
Astronomical Twilight 4:03 AM EDT 11:05 PM EDT
Moon 2:19 PM EDT (6/6) 1:57 AM EDT (6/6)
Length of Visible Light 16h 02m
Length of Day
14h 56m
First Quarter, 58% of the Moon is Illuminated
Jun 6
First Quarter
Jun 13
Full
Jun 19
Last Quarter
Jun 27
New
Jul 5
First Quarter

Hourly Weather History & Observations

Time (EDT) Temp. Dew Point Humidity Pressure Visibility Wind Dir Wind Speed Gust Speed Precip Events Conditions
12:10 AM 53.6 °F 53.6 °F 100% 29.95 in 10.0 mi Calm Calm - 0.00 in   Clear
12:30 AM 53.6 °F 53.6 °F 100% 29.96 in 10.0 mi Calm Calm - 0.00 in   Clear
12:50 AM 53.6 °F 53.6 °F 100% 29.96 in 10.0 mi Calm Calm - 0.00 in   Clear
1:10 AM 53.6 °F 51.8 °F 94% 29.96 in 10.0 mi ESE 5.8 mph - 0.00 in   Clear
1:30 AM 57.2 °F 46.4 °F 67% 29.95 in 10.0 mi ESE 6.9 mph - 0.00 in   Clear
1:50 AM 57.2 °F 44.6 °F 63% 29.95 in 10.0 mi ESE 5.8 mph - 0.00 in   Clear
2:10 AM 55.4 °F 48.2 °F 77% 29.95 in 10.0 mi SE 5.8 mph - 0.00 in   Clear
2:30 AM 55.4 °F 46.4 °F 72% 29.95 in 10.0 mi SE 3.5 mph - 0.00 in   Clear
2:50 AM 53.6 °F 48.2 °F 82% 29.95 in 10.0 mi SE 5.8 mph - 0.00 in   Clear
3:10 AM 53.6 °F 46.4 °F 77% 29.95 in 10.0 mi SE 5.8 mph - 0.00 in   Clear
3:30 AM 53.6 °F 46.4 °F 77% 29.95 in 10.0 mi SE 5.8 mph - 0.00 in   Clear
3:50 AM 51.8 °F 48.2 °F 88% 29.96 in 10.0 mi Calm Calm - 0.00 in   Clear
4:10 AM 51.8 °F 48.2 °F 88% 29.96 in 10.0 mi Calm Calm - 0.00 in   Clear
4:30 AM 51.8 °F 46.4 °F 82% 29.96 in 10.0 mi Calm Calm - 0.00 in   Clear
4:50 AM 50.0 °F 48.2 °F 94% 29.97 in 10.0 mi Calm Calm - 0.00 in   Clear
5:10 AM 50.0 °F 48.2 °F 94% 29.97 in 10.0 mi Calm Calm - 0.00 in   Clear
5:30 AM 50.0 °F 48.2 °F 94% 29.98 in 10.0 mi Calm Calm - 0.00 in   Clear
5:50 AM 48.2 °F 48.2 °F 100% 29.99 in 10.0 mi Calm Calm - 0.00 in   Clear
6:10 AM 48.2 °F 48.2 °F 100% 30.00 in 10.0 mi Calm Calm - 0.00 in   Clear
6:30 AM 48.2 °F 48.2 °F 100% 30.00 in 10.0 mi Calm Calm - 0.00 in   Clear
6:50 AM 51.8 °F 50.0 °F 94% 30.01 in 10.0 mi SE 3.5 mph - 0.00 in   Clear
7:10 AM 51.8 °F 51.8 °F 100% 30.02 in 10.0 mi Calm Calm - 0.00 in   Clear
7:30 AM 55.4 °F 51.8 °F 88% 30.02 in 10.0 mi Calm Calm - 0.00 in   Clear
7:50 AM 57.2 °F 50.0 °F 77% 30.01 in 10.0 mi Calm Calm - 0.00 in   Clear
8:10 AM 60.8 °F 51.8 °F 72% 30.02 in 10.0 mi Calm Calm - 0.00 in   Clear
8:30 AM 62.6 °F 51.8 °F 68% 30.02 in 10.0 mi Calm Calm - 0.00 in   Clear
8:50 AM 62.6 °F 51.8 °F 68% 30.02 in 10.0 mi Calm Calm - 0.00 in   Clear
9:10 AM 64.4 °F 51.8 °F 64% 30.03 in 10.0 mi Calm Calm - 0.00 in   Clear
9:30 AM 66.2 °F 51.8 °F 60% 30.03 in 10.0 mi Calm Calm - 0.00 in   Clear
9:50 AM 66.2 °F 51.8 °F 60% 30.03 in 10.0 mi Calm Calm - 0.00 in   Clear
10:10 AM 68.0 °F 48.2 °F 49% 30.02 in 10.0 mi Calm Calm - 0.00 in   Clear
10:30 AM 68.0 °F 48.2 °F 49% 30.02 in 10.0 mi Calm Calm - 0.00 in   Clear
11:50 AM 69.8 °F 48.2 °F 46% 30.03 in 10.0 mi Calm Calm - 0.00 in   Clear
12:10 PM 69.8 °F 48.2 °F 46% 30.02 in 10.0 mi North 4.6 mph - 0.00 in   Clear
12:30 PM 71.6 °F 48.2 °F 43% 30.02 in 10.0 mi SE 3.5 mph - 0.00 in   Clear
12:50 PM 71.6 °F 48.2 °F 43% 30.01 in 10.0 mi WNW 4.6 mph - 0.00 in   Clear
1:10 PM 71.6 °F 48.2 °F 43% 30.01 in 10.0 mi South 5.8 mph - 0.00 in   Clear
1:30 PM 71.6 °F 46.4 °F 41% 30.01 in 10.0 mi Calm Calm - 0.00 in   Clear
1:50 PM 71.6 °F 48.2 °F 43% 30.01 in 10.0 mi NNW 4.6 mph - 0.00 in   Clear
2:10 PM 73.4 °F 48.2 °F 41% 30.01 in 10.0 mi East 4.6 mph - 0.00 in   Clear
2:30 PM 73.4 °F 48.2 °F 41% 30.01 in 10.0 mi NNW 3.5 mph - 0.00 in   Clear
2:50 PM 73.4 °F 46.4 °F 38% 30.00 in 10.0 mi Calm Calm - 0.00 in   Clear
3:10 PM 73.4 °F 46.4 °F 38% 30.00 in 10.0 mi Calm Calm - 0.00 in   Clear
3:30 PM 73.4 °F 50.0 °F 44% 30.00 in 10.0 mi South 4.6 mph - 0.00 in   Clear
3:50 PM 75.2 °F 50.0 °F 41% 30.00 in 10.0 mi NNW 9.2 mph - 0.00 in   Partly Cloudy
4:10 PM 75.2 °F 50.0 °F 41% 30.00 in 10.0 mi NW 4.6 mph - 0.00 in   Partly Cloudy
4:30 PM 75.2 °F 48.2 °F 38% 29.99 in 10.0 mi Calm Calm - 0.00 in   Clear
5:10 PM 75.2 °F 48.2 °F 38% 29.99 in 10.0 mi Calm Calm - 0.00 in   Clear
5:30 PM 75.2 °F 46.4 °F 36% 29.98 in 10.0 mi Calm Calm - 0.00 in   Clear
5:50 PM 75.2 °F 50.0 °F 41% 29.97 in 10.0 mi Calm Calm - 0.00 in   Clear
6:10 PM 75.2 °F 48.2 °F 38% 29.97 in 10.0 mi SSE 4.6 mph - 0.00 in   Clear
6:30 PM 75.2 °F 50.0 °F 41% 29.98 in 10.0 mi Calm Calm - 0.00 in   Clear
6:50 PM 75.2 °F 50.0 °F 41% 29.97 in 10.0 mi NW 3.5 mph - 0.00 in   Clear
7:10 PM 75.2 °F 50.0 °F 41% 29.98 in 10.0 mi WNW 4.6 mph - 0.00 in   Clear
7:30 PM 73.4 °F 51.8 °F 47% 29.97 in 10.0 mi NNE 3.5 mph - 0.00 in   Clear
7:50 PM 73.4 °F 48.2 °F 41% 29.98 in 10.0 mi Calm Calm - 0.00 in   Clear
8:10 PM 73.4 °F 50.0 °F 44% 29.99 in 10.0 mi Calm Calm - 0.00 in   Clear
8:30 PM 71.6 °F 53.6 °F 53% 29.99 in 10.0 mi Calm Calm - 0.00 in   Clear
8:50 PM 69.8 °F 53.6 °F 56% 29.99 in 10.0 mi Calm Calm - 0.00 in   Clear
9:10 PM 66.2 °F 51.8 °F 60% 30.00 in 10.0 mi Calm Calm - 0.00 in   Clear
9:30 PM 64.4 °F 51.8 °F 64% 30.01 in 10.0 mi Calm Calm - 0.00 in   Clear
9:50 PM 62.6 °F 53.6 °F 72% 30.01 in 10.0 mi Calm Calm - 0.00 in   Clear
10:10 PM 60.8 °F 55.4 °F 82% 30.01 in 10.0 mi Calm Calm - 0.00 in   Clear
10:30 PM 64.4 °F 50.0 °F 59% 30.01 in 10.0 mi East 5.8 mph - 0.00 in   Clear
10:50 PM 66.2 °F 48.2 °F 52% 30.02 in 10.0 mi East 4.6 mph - 0.00 in   Clear
11:10 PM 66.2 °F 48.2 °F 52% 30.02 in 10.0 mi ESE 5.8 mph - 0.00 in   Clear
11:30 PM 64.4 °F 48.2 °F 56% 30.03 in 10.0 mi ESE 3.5 mph - 0.00 in   Clear
11:50 PM 64.4 °F 48.2 °F 56% 30.02 in 10.0 mi East 5.8 mph - 0.00 in   Clear